• Join FlightAware (Why Join?)
  • Login
  • US Flag 
10:36PM EST


 

Airport Tracker/Info


-or-


 

Live Flight TrackerFlight Track Log ✈ AAL2414 ✈ 26-Aug-2014 ✈ KDFW - KMIA

Flight Track Log - Related Links

Times and Time Zones

All times are in EDT time to prevent confusion due to time zone crossing. See the AAL2414 flight status page for this flight to view local times or setup timezone preferences in your user account.

Time Position Orientation Groundspeed Altitude Reporting Facility
EDT Latitude Longitude Course Direction KTS MPH feet Rate Location/Type
11:49AM 32.8572 -97.0280 178° South 210 242 2,400  Level FlightAware ADS-B
11:50AM 32.8162 -97.0259 178° South 244 281 4,100 2,793 Climbing FlightAware ADS-B
11:50AM 32.7928 -97.0253 178° South 257 296 5,100 3,150 Climbing FlightAware ADS-B
11:51AM 32.7683 -97.0253 182° South 262 302 6,200 2,700 Climbing FlightAware ADS-B
11:51AM 32.7424 -97.0254 172° South 276 318 6,900 2,100 Climbing FlightAware ADS-B
11:51AM 32.7219 -97.0146 137° Southeast 283 326 7,600 2,850 Climbing FlightAware ADS-B
11:52AM 32.7099 -96.9847 99° East 269 310 8,800 3,385 Climbing FlightAware ADS-B
11:52AM 32.7075 -96.9581 91° East 270 311 9,800 1,320 Climbing FlightAware ADS-B
11:52AM 32.7104 -96.9159 81° East 286 329 9,900 676 Climbing FlightAware ADS-B
11:53AM 32.7171 -96.8462 85° East 301 346 10,600 1,067 Climbing FlightAware ADS-B
11:53AM 32.7178 -96.8356 85° East 309 356 10,700 1,200 Climbing FlightAware ADS-B
11:54AM 32.7214 -96.7891 84° East 337 388 11,300 1,538 Climbing FlightAware ADS-B
11:54AM 32.7235 -96.7642 84° East 338 389 11,700 2,667 Climbing FlightAware ADS-B
11:54AM 32.7296 -96.6969 84° East 348 400 13,300 2,542 Climbing FlightAware ADS-B
11:55AM 32.7331 -96.6594 83° East 354 407 14,200 2,000 Climbing FlightAware ADS-B
11:55AM 32.7343 -96.6474 83° East 355 409 14,500 2,129 Climbing FlightAware ADS-B
11:55AM 32.7394 -96.5915 83° East 366 421 15,300 2,250 Climbing FlightAware ADS-B
11:55AM 32.7394 -96.5908 83° East 366 421 15,400 2,129 Climbing FlightAware ADS-B
11:56AM 32.7449 -96.5305 84° East 372 428 16,400 2,250 Climbing FlightAware ADS-B
11:56AM 32.7473 -96.5041 84° East 374 430 16,900 2,276 Climbing FlightAware ADS-B
11:56AM 32.7502 -96.4699 84° East 377 434 17,500 2,211 Climbing FlightAware ADS-B
11:57AM 32.7540 -96.4256 84° East 381 438 18,300 2,129 Climbing FlightAware ADS-B
11:57AM 32.7557 -96.4067 84° East 382 440 18,600 2,108 Climbing FlightAware ADS-B
11:57AM 32.7602 -96.3455 89° East 391 450 19,600 1,800 Climbing FlightAware ADS-B
11:58AM 32.7559 -96.2828 99° East 400 460 20,400 1,700 Climbing FlightAware ADS-B
11:58AM 32.7458 -96.2167 100° East 406 467 21,300 1,833 Climbing FlightAware ADS-B
11:58AM 32.7427 -96.1970 100° East 406 467 21,500 1,607 Climbing FlightAware ADS-B (KHOU)
11:59AM 32.7247 -96.0873 100° East 415 478 22,800 1,579 Climbing FlightAware ADS-B (KHOU)
11:59AM 32.7231 -96.0773 100° East 419 482 23,000 2,087 Climbing FlightAware ADS-B
12:00PM 32.7082 -95.9841 100° East 420 483 24,400 2,149 Climbing FlightAware ADS-B (KHOU)
12:01PM 32.6986 -95.9232 100° East 433 498 25,400 2,069 Climbing FlightAware ADS-B
12:01PM 32.6867 -95.8485 100° East 438 504 26,400 1,875 Climbing FlightAware ADS-B
12:01PM 32.6857 -95.8418 100° East 438 504 26,400 1,862 Level FlightAware ADS-B (KHOU)
12:01PM 32.6770 -95.7872 100° East 443 510 27,300 1,900 Climbing FlightAware ADS-B
12:02PM 32.6634 -95.6987 97° East 450 518 28,300 1,644 Climbing FlightAware ADS-B
12:03PM 32.6612 -95.6029 86° East 461 531 29,300  Climbing FlightAware ADS-B (KHOU)
12:03PM 32.6634 -95.6987 85° East 467 537 28,300 1,500 Descending FlightAware ADS-B
12:04PM 32.6716 -95.4492 85° East 473 544 30,900 4,326 Climbing FlightAware ADS-B
12:04PM 32.6617 -95.5928 85° East 470 541 31,400 2,270 Climbing FlightAware ADS-B (KHOU)
12:04PM 32.6771 -95.3725 85° East 466 536 32,300 2,000 Climbing FlightAware ADS-B
12:05PM 32.6895 -95.1904 85° East 464 534 34,400 1,846 Climbing FlightAware ADS-B (KHOU)
12:05PM 32.6900 -95.1818 85° East 464 534 34,300 3,000 Descending FlightAware ADS-B
12:06PM 32.6921 -95.1509 86° East 462 532 35,100 2,069 Climbing FlightAware ADS-B (KDTN)
12:06PM 32.6950 -95.1059 85° East 462 532 35,300 1,435 Climbing FlightAware ADS-B (KHOU)
12:06PM 32.6998 -95.0302 85° East 459 528 36,200 1,754 Climbing FlightAware ADS-B (KHOU)
12:07PM 32.7056 -94.9397 85° East 456 525 37,200 1,624 Climbing FlightAware ADS-B (KHOU)
12:08PM 32.7115 -94.8222 92° East 450 518 38,500 1,350 Climbing FlightAware ADS-B (KHOU)
12:08PM 32.7027 -94.7578 109° East 445 512 39,000 423 Climbing FlightAware ADS-B (KHOU)
12:09PM 32.6698 -94.6558 111° Southeast 448 516 39,000  Level FlightAware ADS-B (KHOU)
12:09PM 32.6745 -94.6701 111° Southeast 448 516 39,000  Level FlightAware ADS-B
12:10PM 32.6466 -94.5881 112° Southeast 451 519 39,000  Level FlightAware ADS-B (KHOU)
12:10PM 32.6414 -94.5732 112° Southeast 451 519 39,000  Level FlightAware ADS-B
12:10PM 32.6374 -94.5617 112° Southeast 451 519 39,000  Level FlightAware ADS-B (KDTN)
12:10PM 32.6217 -94.5155 112° Southeast 449 517 39,000  Level FlightAware ADS-B (KHOU)
12:10PM 32.6072 -94.4747 115° Southeast 447 514 39,000  Level FlightAware ADS-B (KDTN)
12:11PM 32.5978 -94.4519 117° Southeast 445 512 39,000  Level FlightAware ADS-B (KHOU)
12:11PM 32.5757 -94.4052 122° Southeast 443 510 39,000  Level FlightAware ADS-B (KDTN)
12:11PM 32.5623 -94.3810 124° Southeast 441 507 39,000  Level FlightAware ADS-B (KHOU)
12:11PM 32.5513 -94.3622 124° Southeast 440 506 39,000  Level FlightAware ADS-B
12:12PM 32.5312 -94.3272 124° Southeast 440 506 39,000  Level FlightAware ADS-B (KDTN)
12:12PM 32.5213 -94.3103 124° Southeast 438 504 39,000  Level FlightAware ADS-B
12:12PM 32.5412 -94.3448 124° Southeast 437 503 39,000  Level FlightAware ADS-B (KHOU)
12:12PM 32.4857 -94.2490 125° Southeast 438 504 39,000  Level FlightAware ADS-B (KDTN)
12:13PM 32.4917 -94.2593 124° Southeast 437 503 39,000  Level FlightAware ADS-B
12:13PM 32.4433 -94.1765 125° Southeast 438 504 39,000  Level FlightAware ADS-B (KDTN)
12:13PM 32.4136 -94.1259 124° Southeast 438 504 39,000  Level FlightAware ADS-B
12:14PM 32.4111 -94.1216 124° Southeast 438 504 39,000  Level FlightAware ADS-B
12:14PM 32.3702 -94.0519 125° Southeast 438 504 39,000  Level FlightAware ADS-B (KDTN)
12:14PM 32.3535 -94.0236 124° Southeast 438 504 39,000  Level FlightAware ADS-B (KHOU)
12:15PM 32.3170 -93.9619 124° Southeast 439 505 39,000  Level FlightAware ADS-B (KHOU)
12:15PM 32.3112 -93.9520 125° Southeast 440 506 39,000  Level FlightAware ADS-B (KDTN)
12:15PM 32.2830 -93.9045 124° Southeast 440 506 39,000  Level FlightAware ADS-B (KHOU)
12:15PM 32.2641 -93.8725 125° Southeast 440 506 39,000  Level FlightAware ADS-B (KDTN)
12:16PM 32.2483 -93.8457 124° Southeast 440 506 39,000  Level FlightAware ADS-B (KHOU)
12:16PM 32.2172 -93.7934 125° Southeast 442 509 39,000  Level FlightAware ADS-B (KDTN)
12:16PM 32.2121 -93.7846 124° Southeast 441 507 39,000  Level FlightAware ADS-B (KHOU)
12:17PM 32.1780 -93.7273 124° Southeast 443 510 39,000  Level FlightAware ADS-B (KHOU)
12:17PM 32.1707 -93.7151 125° Southeast 443 510 39,000  Level FlightAware ADS-B (KDTN)
12:17PM 32.1508 -93.6816 125° Southeast 442 509 39,000  Level FlightAware ADS-B (KHOU)
12:17PM 32.1252 -93.6385 125° Southeast 442 509 39,000  Level FlightAware ADS-B (KDTN)
12:18PM 32.1093 -93.6118 125° Southeast 442 509 39,000  Level FlightAware ADS-B (KHOU)
12:18PM 32.0804 -93.5634 125° Southeast 441 507 39,000  Level FlightAware ADS-B (KDTN)
12:18PM 32.0775 -93.5587 125° Southeast 440 506 39,000  Level FlightAware ADS-B (KHOU)
12:19PM 32.0356 -93.4885 125° Southeast 440 506 39,000  Level FlightAware ADS-B (KHOU)
12:19PM 32.0114 -93.4483 125° Southeast 440 506 39,000  Level FlightAware ADS-B (KHOU)
12:20PM 31.9118 -93.2825 125° Southeast 440 506 39,000  Level FlightAware ADS-B (KHOU)
12:22PM 31.8535 -93.1855 125° Southeast 438 504 39,000  Level FlightAware ADS-B (KHOU)
12:22PM 31.8157 -93.1230 125° Southeast 438 504 39,000  Level FlightAware ADS-B (KHOU)
12:24PM 31.6854 -92.9081 125° Southeast 439 505 39,000  Level FlightAware ADS-B (KHOU)
12:24PM 31.6487 -92.8475 125° Southeast 438 504 39,000  Level FlightAware ADS-B (KHOU)
12:24PM 31.6449 -92.8413 125° Southeast 438 504 39,000  Level FlightAware ADS-B (KHOU)
12:25PM 31.5835 -92.7402 125° Southeast 438 504 39,000  Level FlightAware ADS-B (KHOU)
12:26PM 31.5431 -92.6741 125° Southeast 438 504 39,000  Level FlightAware ADS-B (KHOU)
12:26PM 31.5117 -92.6228 125° Southeast 438 504 39,000  Level FlightAware ADS-B (KHOU)
12:27PM 31.4719 -92.5578 125° Southeast 438 504 39,000  Level FlightAware ADS-B
12:27PM 31.4492 -92.5207 125° Southeast 439 505 39,000  Level FlightAware ADS-B (KHOU)
12:28PM 31.4049 -92.4484 125° Southeast 440 506 39,000  Level FlightAware ADS-B (KHOU)
12:28PM 31.4003 -92.4410 125° Southeast 440 506 39,000  Level FlightAware ADS-B
12:28PM 31.3909 -92.4256 125° Southeast 440 506 39,000  Level FlightAware ADS-B (KHOU)
12:29PM 31.3291 -92.3250 125° Southeast 440 506 39,000  Level FlightAware ADS-B (KHOU)
12:29PM 31.3163 -92.3046 125° Southeast 442 509 39,000  Level FlightAware ADS-B (KHOU)
12:30PM 31.2044 -92.1234 125° Southeast 443 510 39,000  Level FlightAware ADS-B (KHOU)
12:31PM 31.1694 -92.0668 125° Southeast 444 511 39,000  Level FlightAware ADS-B (KHOU)
12:31PM 31.1449 -92.0273 125° Southeast 444 511 39,000  Level FlightAware ADS-B (KHOU)
12:32PM 31.1028 -91.9597 125° Southeast 445 512 39,000  Level FlightAware ADS-B (KHOU)
12:37PM 30.7597 -91.4119 126° Southeast 452 520 39,000  Level FlightAware ADS-B (KHOU)
12:37PM 30.7217 -91.3520 126° Southeast 453 521 39,000  Level FlightAware ADS-B (KHOU)
12:37PM 30.6946 -91.3092 126° Southeast 452 520 39,000  Level FlightAware ADS-B (KHOU)
12:39PM 30.5997 -91.1594 126° Southeast 455 524 39,000  Level FlightAware ADS-B (KHOU)
12:39PM 30.5834 -91.1338 126° Southeast 455 524 39,000  Level FlightAware ADS-B (KHOU)
12:40PM 30.5168 -91.0293 126° Southeast 456 525 39,000  Level FlightAware ADS-B (KHOU)
12:40PM 30.5023 -91.0064 126° Southeast 456 525 39,000  Level FlightAware ADS-B (KHOU)
12:41PM 30.4466 -90.9192 126° Southeast 456 525 39,000  Level FlightAware ADS-B (KHOU)
12:41PM 30.4026 -90.8504 126° Southeast 457 526 39,000  Level FlightAware ADS-B (KHOU)
12:41PM 30.4004 -90.8470 126° Southeast 457 526 39,000  Level FlightAware ADS-B (KHOU)
12:42PM 30.3358 -90.7531 126° Southeast 455 524 39,000  Level Houston Center
12:43PM 30.2606 -90.6350 126° Southeast 456 525 39,000  Level Houston Center
12:45PM 30.0931 -90.3764 127° Southeast 458 527 39,000  Level Houston Center
12:46PM 30.0156 -90.2586 127° Southeast 460 529 39,000  Level Houston Center
12:47PM 29.9386 -90.1400 127° Southeast 462 532 39,000  Level Houston Center
12:48PM 29.8619 -90.0219 127° Southeast 463 533 39,000  Level Houston Center
12:49PM 29.7811 -89.9067 129° Southeast 464 534 39,000  Level Houston Center
12:50PM 29.6806 -89.7731 131° Southeast 463 533 39,000  Level Houston Center
12:52PM 29.5972 -89.6608 130° Southeast 463 533 39,000  Level Houston Center
12:53PM 29.5156 -89.5475 130° Southeast 463 533 39,000  Level Houston Center
12:54PM 29.4333 -89.4356 130° Southeast 463 533 39,000  Level Houston Center
12:55PM 29.3506 -89.3244 131° Southeast 462 532 39,000  Level Houston Center
12:56PM 29.2678 -89.2119 130° Southeast 462 532 39,000  Level Houston Center
12:57PM 29.1681 -89.0797 131° Southeast 460 529 39,000  Level Houston Center
12:58PM 29.0858 -88.9697 131° Southeast 459 528 39,000  Level Houston Center
12:59PM 29.0028 -88.8586 131° Southeast 459 528 39,000  Level Houston Center
01:00PM 28.9197 -88.7483 131° Southeast 459 528 39,000  Level Houston Center
01:01PM 28.8361 -88.6364 130° Southeast 461 531 39,000  Level Houston Center
01:02PM 28.7533 -88.5250 130° Southeast 464 534 39,000  Level Houston Center
01:03PM 28.6689 -88.4133 131° Southeast 464 534 39,000  Level Houston Center
01:04PM 28.5686 -88.2786 130° Southeast 465 535 39,000  Level Houston Center
01:05PM 28.4833 -88.1656 131° Southeast 471 542 39,000  Level Houston Center
01:06PM 28.4006 -88.0542 130° Southeast 470 541 39,000  Level Houston Center
01:07PM 28.3489 -87.9161 113° Southeast 481 554 39,000  Level Houston Center
01:08PM 28.3031 -87.7764 110° East 480 552 39,000  Level Houston Center
01:09PM 28.2464 -87.6075 111° Southeast 479 551 39,000  Level Houston Center
01:10PM 28.1994 -87.4664 111° Southeast 480 552 39,000  Level Houston Center
01:11PM 28.1536 -87.3258 110° East 479 551 39,000  Level Houston Center
01:12PM 28.1244 -87.2436 112° Southeast 471 542 39,000  Level Jacksonville Center
01:13PM 28.0769 -87.1050 111° Southeast 477 549 39,000  Level Jacksonville Center
01:14PM 28.0272 -86.9572 111° Southeast 479 551 39,000  Level Jacksonville Center
01:15PM 27.9814 -86.8217 111° Southeast 477 549 39,000  Level Jacksonville Center
01:16PM 27.9375 -86.6883 110° East 478 550 39,000  Level Jacksonville Center
01:17PM 27.8875 -86.5433 111° Southeast 473 544 39,000  Level Jacksonville Center
01:18PM 27.8431 -86.4150 111° Southeast 470 541 39,000  Level Jacksonville Center
01:19PM 27.7947 -86.2750 111° Southeast 459 528 39,000  Level Jacksonville Center
01:20PM 27.7481 -86.1397 111° Southeast 459 528 39,000  Level Jacksonville Center
01:21PM 27.7014 -86.0047 111° Southeast 454 522 39,000  Level Jacksonville Center
01:23PM 27.6053 -85.7264 111° Southeast 464 534 39,000  Level Miami Center
01:24PM 27.5581 -85.5914 112° Southeast 464 534 39,000  Level Miami Center
01:25PM 27.5092 -85.4561 112° Southeast 464 534 39,000  Level Miami Center
01:29PM 27.3017 -84.8363 111° Southeast 465 535 39,000  Level FlightAware ADS-B (KEYW)
01:31PM 27.2327 -84.6371 111° Southeast 465 535 39,000  Level FlightAware ADS-B (KEYW)
01:31PM 27.2135 -84.5822 111° Southeast 465 535 39,000  Level FlightAware ADS-B (KEYW)
01:31PM 27.1912 -84.5178 111° Southeast 466 536 39,000  Level FlightAware ADS-B (KEYW)
01:33PM 27.1378 -84.3652 111° Southeast 465 535 39,000  Level FlightAware ADS-B (KEYW)
01:33PM 27.1282 -84.3374 111° Southeast 465 535 39,000  Level FlightAware ADS-B (KEYW)
01:34PM 27.0770 -84.1920 111° Southeast 465 535 39,000  Level FlightAware ADS-B (KEYW)
01:35PM 27.0409 -84.0899 111° Southeast 465 535 39,000  Level FlightAware ADS-B (KEYW)
01:35PM 27.0176 -84.0240 111° Southeast 465 535 39,000  Level FlightAware ADS-B (KEYW)
01:36PM 26.9939 -83.9568 111° Southeast 465 535 39,000  Level FlightAware ADS-B (KEYW)
01:36PM 26.9721 -83.8953 111° Southeast 465 535 39,000  Level FlightAware ADS-B (KEYW)
01:37PM 26.9601 -83.8614 111° Southeast 465 535 39,000  Level FlightAware ADS-B (KEYW)
01:37PM 26.9225 -83.7553 111° Southeast 465 535 39,000  Level FlightAware ADS-B (KEYW)
01:38PM 26.9081 -83.7149 111° Southeast 464 534 39,000  Level FlightAware ADS-B (KEYW)
01:38PM 26.8618 -83.5850 111° Southeast 465 535 39,000  Level FlightAware ADS-B (KEYW)
01:39PM 26.8260 -83.4855 111° Southeast 464 534 39,000  Level FlightAware ADS-B (KEYW)
01:40PM 26.7790 -83.3548 111° Southeast 465 535 39,000  Level FlightAware ADS-B (KEYW)
01:41PM 26.7534 -83.2842 111° Southeast 466 536 39,000  Level FlightAware ADS-B (KEYW)
01:41PM 26.7373 -83.2391 111° Southeast 466 536 39,000 -725 Level FlightAware ADS-B (KEYW)
01:42PM 26.6885 -83.1045 111° Southeast 473 544 37,900 -1,252 Descending FlightAware ADS-B (KEYW)
01:43PM 26.6434 -82.9803 112° Southeast 482 555 36,600 -1,440 Descending FlightAware ADS-B (KEYW)
01:43PM 26.6176 -82.9095 112° Southeast 479 551 36,100 -1,300 Descending FlightAware ADS-B (KEYW)
01:44PM 26.5922 -82.8397 112° Southeast 485 558 35,300 -1,377 Descending FlightAware ADS-B (KEYW)
01:44PM 26.5669 -82.7699 112° Southeast 480 552 34,700 -1,400 Descending FlightAware ADS-B (KEYW)
01:45PM 26.5414 -82.7003 112° Southeast 476 548 33,900 -2,160 Descending FlightAware ADS-B (KEYW)
01:46PM 26.5030 -82.5959 112° Southeast 480 552 32,000 -2,182 Descending FlightAware ADS-B (KEYW)
01:46PM 26.4987 -82.5839 112° Southeast 479 551 31,900 -1,800 Descending FlightAware ADS-B (KPGD)
01:46PM 26.4785 -82.5288 112° Southeast 469 540 31,100 -2,426 Descending FlightAware ADS-B (KEYW)
01:47PM 26.4603 -82.4792 112° Southeast 471 542 30,000 -2,739 Descending FlightAware ADS-B (KPGD)
01:47PM 26.4414 -82.4282 112° Southeast 465 535 29,000 -3,094 Descending FlightAware ADS-B (KEYW)
01:48PM 26.4039 -82.3270 112° Southeast 464 534 26,700 -2,885 Descending FlightAware ADS-B (KEYW)
01:48PM 26.4019 -82.3212 113° Southeast 465 535 26,500 -2,200 Descending FlightAware ADS-B (KPGD)
01:48PM 26.3796 -82.2608 112° Southeast 459 528 25,600 -2,129 Descending FlightAware ADS-B (KEYW)
01:48PM 26.3770 -82.2538 112° Southeast 457 526 25,400 -2,087 Descending FlightAware ADS-B
01:49PM 26.3466 -82.1716 112° Southeast 444 511 24,000 -2,328 Descending FlightAware ADS-B
01:49PM 26.3205 -82.1014 112° Southeast 433 498 22,800 -2,129 Descending FlightAware ADS-B (KEYW)
01:49PM 26.3231 -82.1084 112° Southeast 438 504 22,900 -2,800 Climbing FlightAware ADS-B
01:50PM 26.2971 -82.0387 112° Southeast 428 493 21,400 -2,571 Descending FlightAware ADS-B (KEYW)
01:50PM 26.2764 -81.9830 112° Southeast 423 487 20,500 -1,636 Descending FlightAware ADS-B (KEYW)
01:51PM 26.2681 -81.9611 113° Southeast 426 490 20,200 -1,688 Descending FlightAware ADS-B
01:51PM 26.2523 -81.9189 112° Southeast 415 478 19,600 -1,839 Descending FlightAware ADS-B (KEYW)
01:52PM 26.2191 -81.8299 112° Southeast 402 463 18,300 -1,800 Descending FlightAware ADS-B (KEYW)
01:52PM 26.1873 -81.7448 112° Southeast 399 459 16,900 -1,920 Descending FlightAware ADS-B (KEYW)
01:53PM 26.1660 -81.6880 112° Southeast 399 459 15,900 -1,672 Descending FlightAware ADS-B (KEYW)
01:53PM 26.1445 -81.6308 112° Southeast 396 456 15,200 -1,300 Descending FlightAware ADS-B (KEYW)
01:54PM 26.1232 -81.5743 112° Southeast 386 444 14,600 -1,300 Descending FlightAware ADS-B (KEYW)
01:54PM 26.1030 -81.5205 112° Southeast 381 438 13,900 -1,400 Descending FlightAware ADS-B (KEYW)
01:55PM 26.0819 -81.4646 112° Southeast 380 437 13,200 -1,279 Descending FlightAware ADS-B (KEYW)
01:55PM 26.0616 -81.4108 112° Southeast 378 435 12,600 -1,105 Descending FlightAware ADS-B (KEYW)
01:56PM 26.0318 -81.3318 112° Southeast 374 430 11,800 -1,120 Descending FlightAware ADS-B (KEYW)
01:57PM 26.0112 -81.2775 112° Southeast 372 428 11,200 -1,100 Descending FlightAware ADS-B (KEYW)
01:57PM 25.9913 -81.2247 112° Southeast 369 425 10,700 -1,000 Descending FlightAware ADS-B (KEYW)
01:58PM 25.9712 -81.1721 112° Southeast 366 421 10,200 -522 Descending FlightAware ADS-B (KEYW)
01:58PM 25.9454 -81.1041 112° Southeast 359 413 10,100 -174 Descending FlightAware ADS-B (KEYW)
01:59PM 25.9270 -81.0559 113° Southeast 324 373 10,000 -824 Descending FlightAware ADS-B (KEYW)
01:59PM 25.9156 -81.0260 112° Southeast 307 353 9,400 -1,647 Descending FlightAware ADS-B (KEYW)
02:00PM 25.8987 -80.9819 112° Southeast 289 333 8,600 -1,579 Descending FlightAware ADS-B (KEYW)
02:00PM 25.8912 -80.9618 110° East 285 328 7,900 -1,343 Descending FlightAware ADS-B (KEYW)
02:01PM 25.8703 -80.9058 110° East 289 333 7,100 -1,185 Descending Miami Center
02:02PM 25.8514 -80.8503 111° Southeast 274 315 6,300 -1,279 Descending Miami Center
02:02PM 25.8517 -80.8258 89° East 273 314 5,800 -1,377 Descending Miami Center
02:03PM 25.8550 -80.7672 86° East 267 307 4,900 -1,258 Descending Miami Center
02:03PM 25.8567 -80.7436 86° East 269 310 4,500 -1,254 Descending Miami Center
02:04PM 25.8586 -80.6819 88° East 259 298 3,500 -1,258 Descending Miami Center
02:04PM 25.8592 -80.6639 88° East 261 300 3,200 -545 Descending Miami Center
02:05PM 25.8508 -80.6094 100° East 253 291 3,000 -295 Descending Miami Center
02:05PM 25.8492 -80.5858 94° East 255 293 2,900  Descending Miami Center
02:06PM 25.8378 -80.5203 101° East 255 293 3,000  Climbing Miami Center
02:06PM 25.8356 -80.5078 101° East 255 293 2,900 -492 Descending Miami Center
02:07PM 25.8108 -80.4511 116° Southeast 234 269 2,500 -677 Descending Miami Center
02:07PM 25.8086 -80.4403 103° East 237 273 2,200 -759 Descending Miami Center
02:08PM 25.7994 -80.3828 100° East 185 213 1,500 -743 Descending Miami Center
02:09PM 25.8006 -80.3486 88° East 123 142 900 -774 Descending Miami Center
02:09PM 25.8017 -80.3400 82° East 140 161 700 -689 Descending Miami Center
02:10PM 25.8008 -80.3092 92° East 120 138 200 -581 Descending Miami Center
02:10PM 25.8028 -80.3036 69° East 130 150 100 -316 Descending Miami Center